createdAt,value
2022-11-29T00:01:29.154Z,0.53
2022-11-29T00:07:35.280Z,0.52
2022-11-29T00:14:32.507Z,0.53
2022-11-29T00:17:22.858Z,0.55
2022-11-29T00:20:35.687Z,0.57
2022-11-29T00:26:58.550Z,0.59
2022-11-29T00:30:11.749Z,0.60
2022-11-29T00:33:14.866Z,0.60
2022-11-29T00:39:22.183Z,0.62
2022-11-29T00:42:41.487Z,0.64
2022-11-29T00:45:49.225Z,0.63
2022-11-29T00:48:48.502Z,0.63
2022-11-29T00:51:48.618Z,0.64
2022-11-29T01:01:29.850Z,0.65
2022-11-29T01:04:34.150Z,0.67
2022-11-29T01:10:53.881Z,0.66
2022-11-29T01:14:12.509Z,0.66
2022-11-29T01:17:45.308Z,0.65
2022-11-29T01:28:43.673Z,0.67
2022-11-29T01:34:40.388Z,0.69
2022-11-29T01:37:14.721Z,0.68
2022-11-29T01:40:53.905Z,0.67
2022-11-29T01:47:52.562Z,0.68
2022-11-29T01:51:28.322Z,0.71
2022-11-29T01:54:48.860Z,0.72
2022-11-29T02:02:08.124Z,0.76
2022-11-29T02:05:10.271Z,0.77
2022-11-29T02:08:23.833Z,0.76
2022-11-29T02:11:47.817Z,0.78
2022-11-29T02:21:50.626Z,0.80
2022-11-29T02:30:06.534Z,0.81
2022-11-29T02:33:11.484Z,0.80
2022-11-29T02:36:58.252Z,0.77
2022-11-29T02:45:18.001Z,0.73
2022-11-29T02:49:00.943Z,0.72
2022-11-29T02:52:41.963Z,0.67
2022-11-29T03:00:08.721Z,0.64
2022-11-29T03:07:35.397Z,0.67
2022-11-29T03:10:35.026Z,0.68
2022-11-29T03:14:06.167Z,0.68
2022-11-29T03:17:20.889Z,0.69
2022-11-29T03:24:27.230Z,0.70
2022-11-29T03:27:42.302Z,0.70
2022-11-29T03:30:40.815Z,0.69
2022-11-29T03:37:10.842Z,0.66
2022-11-29T03:43:45.889Z,0.64
2022-11-29T03:46:46.655Z,0.64
2022-11-29T03:49:46.454Z,0.63
2022-11-29T03:52:45.947Z,0.63
2022-11-29T03:56:05.705Z,0.62
2022-11-29T04:03:07.976Z,0.62
2022-11-29T04:14:46.687Z,0.62
2022-11-29T04:21:46.476Z,0.62
2022-11-29T04:25:23.749Z,0.62
2022-11-29T04:28:36.848Z,0.64
2022-11-29T04:31:42.989Z,0.63
2022-11-29T04:34:50.636Z,0.60
2022-11-29T04:38:19.999Z,0.60
2022-11-29T04:41:34.454Z,0.60
2022-11-29T04:45:17.067Z,0.59
2022-11-29T04:55:50.406Z,0.54
2022-11-29T05:06:22.183Z,0.47
2022-11-29T05:14:18.216Z,0.47
2022-11-29T05:26:05.758Z,0.41
2022-11-29T05:32:41.643Z,0.34
2022-11-29T05:35:57.015Z,0.33
2022-11-29T05:39:19.845Z,0.33
2022-11-29T05:45:53.088Z,0.29
2022-11-29T05:57:48.629Z,0.17
2022-11-29T06:32:11.298Z,0.03
2022-11-29T06:35:33.572Z,0.04
2022-11-29T06:38:54.379Z,0.05
2022-11-29T06:45:53.831Z,0.01
2022-11-29T06:57:02.642Z,0.03
2022-11-29T06:59:40.885Z,0.05
2022-11-29T07:02:18.273Z,0.06
2022-11-29T07:05:13.161Z,0.08
2022-11-29T07:07:42.164Z,0.09
2022-11-29T07:10:21.023Z,0.12
2022-11-29T07:12:51.262Z,0.12
2022-11-29T07:15:23.740Z,0.11
2022-11-29T07:18:15.790Z,0.14
2022-11-29T07:21:11.983Z,0.19
2022-11-29T07:23:54.593Z,0.17
2022-11-29T07:26:38.301Z,0.16
2022-11-29T07:29:53.775Z,0.17
2022-11-29T07:32:51.471Z,0.21
2022-11-29T07:35:42.081Z,0.25
2022-11-29T07:38:26.351Z,0.28
2022-11-29T07:41:31.662Z,0.34
2022-11-29T07:44:24.995Z,0.37
2022-11-29T07:47:22.148Z,0.38
2022-11-29T07:50:08.023Z,0.41
2022-11-29T07:52:43.513Z,0.44
2022-11-29T07:55:32.205Z,0.46
2022-11-29T07:58:26.608Z,0.50
2022-11-29T08:01:30.486Z,0.53
2022-11-29T08:04:37.702Z,0.58
2022-11-29T08:07:26.774Z,0.62
2022-11-29T08:10:07.610Z,0.65
2022-11-29T08:12:47.953Z,0.66
2022-11-29T08:15:32.341Z,0.65
2022-11-29T08:18:19.702Z,0.65
2022-11-29T08:21:01.105Z,0.65
2022-11-29T08:23:53.389Z,0.67
2022-11-29T08:26:42.847Z,0.71
2022-11-29T08:29:41.142Z,0.76
2022-11-29T08:32:39.817Z,0.78
2022-11-29T08:35:21.778Z,0.80
2022-11-29T08:38:06.793Z,0.85
2022-11-29T08:40:43.148Z,0.90
2022-11-29T08:43:15.972Z,0.94
2022-11-29T08:45:55.042Z,0.98
2022-11-29T08:48:29.909Z,1.01
2022-11-29T08:51:13.864Z,1.03
2022-11-29T08:53:49.107Z,1.07
2022-11-29T08:59:31.104Z,1.14
2022-11-29T09:02:17.070Z,1.18
2022-11-29T09:04:55.827Z,1.20
2022-11-29T09:07:37.669Z,1.23
2022-11-29T09:13:56.915Z,1.33
2022-11-29T09:16:42.723Z,1.39
2022-11-29T09:19:19.193Z,1.44
2022-11-29T09:21:47.892Z,1.49
2022-11-29T09:24:21.595Z,1.53
2022-11-29T09:27:15.931Z,1.54
2022-11-29T09:30:23.377Z,1.54
2022-11-29T09:36:13.425Z,1.52
2022-11-29T09:42:22.411Z,1.57
2022-11-29T09:45:29.071Z,1.61
2022-11-29T09:48:34.347Z,1.67
2022-11-29T09:51:18.609Z,1.69
2022-11-29T09:54:15.817Z,1.72
2022-11-29T09:56:57.523Z,1.73
2022-11-29T10:00:12.648Z,1.72
2022-11-29T10:03:16.404Z,1.74
2022-11-29T10:06:18.062Z,1.77
2022-11-29T10:09:23.553Z,1.79
2022-11-29T10:12:17.597Z,1.86
2022-11-29T10:15:01.478Z,1.85
2022-11-29T10:17:50.383Z,1.87
2022-11-29T10:20:53.331Z,1.92
2022-11-29T10:23:58.506Z,1.97
2022-11-29T10:26:29.301Z,1.99
2022-11-29T10:29:26.498Z,2.05
2022-11-29T10:32:10.439Z,2.09
2022-11-29T10:35:02.439Z,2.10
2022-11-29T10:38:14.656Z,2.13
2022-11-29T10:41:28.182Z,2.19
2022-11-29T10:48:06.503Z,2.38
2022-11-29T10:50:46.508Z,2.44
2022-11-29T10:53:48.305Z,2.47
2022-11-29T10:56:35.788Z,2.53
2022-11-29T11:02:29.471Z,2.62
2022-11-29T11:05:32.410Z,2.67
2022-11-29T11:08:42.199Z,2.76
2022-11-29T11:12:14.662Z,2.73
2022-11-29T11:15:37.124Z,2.66
2022-11-29T11:19:03.640Z,2.67
2022-11-29T11:21:47.908Z,2.78
2022-11-29T11:24:46.061Z,2.92
2022-11-29T11:27:39.707Z,2.98
2022-11-29T11:30:22.898Z,2.97
2022-11-29T11:33:38.056Z,3.00
2022-11-29T11:36:25.740Z,3.05
2022-11-29T11:39:20.033Z,3.03
2022-11-29T11:42:11.102Z,2.97
2022-11-29T11:45:03.318Z,2.98
2022-11-29T11:48:16.911Z,3.02
2022-11-29T11:51:33.862Z,3.10
2022-11-29T11:54:21.008Z,3.15
2022-11-29T11:56:57.377Z,3.24
2022-11-29T11:59:43.367Z,3.33
2022-11-29T12:02:41.224Z,3.34
2022-11-29T12:05:25.589Z,3.33
2022-11-29T12:08:12.578Z,3.38
2022-11-29T12:10:51.067Z,3.43
2022-11-29T12:13:32.638Z,3.46
2022-11-29T12:16:30.385Z,3.46
2022-11-29T12:19:13.682Z,3.40
2022-11-29T12:21:54.501Z,3.34
2022-11-29T12:27:46.179Z,3.37
2022-11-29T12:30:28.865Z,3.45
2022-11-29T12:33:22.866Z,3.53
2022-11-29T12:36:19.641Z,3.61
2022-11-29T12:39:18.173Z,3.68
2022-11-29T12:42:34.230Z,3.72
2022-11-29T12:45:24.109Z,3.79
2022-11-29T12:48:42.653Z,3.80
2022-11-29T12:51:58.100Z,3.82
2022-11-29T12:54:32.944Z,3.84
2022-11-29T12:57:23.597Z,3.84
2022-11-29T13:00:25.266Z,3.82
2022-11-29T13:03:04.317Z,3.81
2022-11-29T13:06:08.492Z,3.82
2022-11-29T13:09:04.201Z,3.83
2022-11-29T13:12:07.574Z,3.79
2022-11-29T13:15:02.323Z,3.74
2022-11-29T13:17:50.155Z,3.68
2022-11-29T13:20:59.842Z,3.67
2022-11-29T13:24:31.864Z,3.62
2022-11-29T13:27:17.678Z,3.64
2022-11-29T13:29:57.924Z,3.63
2022-11-29T13:33:14.839Z,3.57
2022-11-29T13:36:14.324Z,3.54
2022-11-29T13:39:27.856Z,3.52
2022-11-29T13:42:17.942Z,3.50
2022-11-29T13:45:31.762Z,3.50
2022-11-29T13:48:28.291Z,3.52
2022-11-29T13:51:41.972Z,3.50
2022-11-29T13:58:19.253Z,3.40
2022-11-29T14:01:09.848Z,3.40
2022-11-29T14:04:16.643Z,3.41
2022-11-29T14:09:55.749Z,3.35
2022-11-29T14:12:44.211Z,3.31
2022-11-29T14:15:35.691Z,3.27
2022-11-29T14:18:38.221Z,3.26
2022-11-29T14:21:18.084Z,3.24
2022-11-29T14:27:31.370Z,3.12
2022-11-29T14:30:05.464Z,3.07
2022-11-29T14:33:15.367Z,3.03
2022-11-29T14:36:08.871Z,3.01
2022-11-29T14:39:22.084Z,3.01
2022-11-29T14:43:02.852Z,2.98
2022-11-29T14:45:43.015Z,2.95
2022-11-29T14:48:42.214Z,2.91
2022-11-29T14:51:36.038Z,2.89
2022-11-29T14:54:20.618Z,2.84
2022-11-29T14:57:03.796Z,2.77
2022-11-29T14:59:50.346Z,2.70
2022-11-29T15:02:46.906Z,2.69
2022-11-29T15:05:54.142Z,2.67
2022-11-29T15:08:30.260Z,2.65
2022-11-29T15:11:06.249Z,2.61
2022-11-29T15:13:59.201Z,2.54
2022-11-29T15:17:18.569Z,2.50
2022-11-29T15:20:14.508Z,2.48
2022-11-29T15:23:11.724Z,2.46
2022-11-29T15:26:22.180Z,2.44
2022-11-29T15:29:23.164Z,2.42
2022-11-29T15:35:50.420Z,2.36
2022-11-29T15:39:03.380Z,2.33
2022-11-29T15:41:58.008Z,2.26
2022-11-29T15:44:28.923Z,2.20
2022-11-29T15:47:16.208Z,2.16
2022-11-29T15:49:47.804Z,2.12
2022-11-29T15:52:32.113Z,2.07
2022-11-29T15:55:12.038Z,2.04
2022-11-29T15:57:48.409Z,2.02
2022-11-29T16:00:24.257Z,2.00
2022-11-29T16:03:07.808Z,1.99
2022-11-29T16:05:42.457Z,1.96
2022-11-29T16:08:20.090Z,1.96
2022-11-29T16:10:57.324Z,1.95
2022-11-29T16:13:33.143Z,1.92
2022-11-29T16:16:08.189Z,1.90
2022-11-29T16:18:44.620Z,1.86
2022-11-29T16:21:34.229Z,1.83
2022-11-29T16:24:14.047Z,1.85
2022-11-29T16:27:07.852Z,1.87
2022-11-29T16:29:43.559Z,1.87
2022-11-29T16:32:31.331Z,1.83
2022-11-29T16:35:43.317Z,1.79
2022-11-29T16:38:27.269Z,1.75
2022-11-29T16:41:09.706Z,1.74
2022-11-29T16:43:49.838Z,1.74
2022-11-29T16:46:27.332Z,1.73
2022-11-29T16:49:03.938Z,1.75
2022-11-29T16:51:52.113Z,1.78
2022-11-29T16:54:28.502Z,1.77
2022-11-29T16:56:58.531Z,1.72
2022-11-29T16:59:28.841Z,1.68
2022-11-29T17:01:58.307Z,1.64
2022-11-29T17:04:29.409Z,1.61
2022-11-29T17:07:00.372Z,1.58
2022-11-29T17:09:34.576Z,1.55
2022-11-29T17:12:13.928Z,1.51
2022-11-29T17:14:47.251Z,1.49
2022-11-29T17:17:28.184Z,1.49
2022-11-29T17:19:57.665Z,1.50
2022-11-29T17:22:38.425Z,1.49
2022-11-29T17:25:07.914Z,1.45
2022-11-29T17:27:37.146Z,1.43
2022-11-29T17:30:08.152Z,1.46
2022-11-29T17:32:37.530Z,1.47
2022-11-29T17:35:06.396Z,1.47
2022-11-29T17:37:35.778Z,1.41
2022-11-29T17:40:05.011Z,1.37
2022-11-29T17:42:37.419Z,1.36
2022-11-29T17:45:06.527Z,1.36
2022-11-29T17:47:40.303Z,1.36
2022-11-29T17:50:09.634Z,1.36
2022-11-29T17:52:40.235Z,1.32
2022-11-29T17:55:09.316Z,1.29
2022-11-29T17:57:38.634Z,1.25
2022-11-29T18:00:09.248Z,1.24
2022-11-29T18:02:38.374Z,1.23
2022-11-29T18:05:09.157Z,1.21
2022-11-29T18:07:58.823Z,1.19
2022-11-29T18:10:29.045Z,1.19
2022-11-29T18:12:58.356Z,1.20
2022-11-29T18:15:26.992Z,1.20
2022-11-29T18:17:55.646Z,1.21
2022-11-29T18:20:24.785Z,1.22
2022-11-29T18:22:53.664Z,1.23
2022-11-29T18:25:39.634Z,1.21
2022-11-29T18:28:11.855Z,1.18
2022-11-29T18:30:41.878Z,1.16
2022-11-29T18:33:11.510Z,1.16
2022-11-29T18:35:42.877Z,1.14
2022-11-29T18:38:16.544Z,1.09
2022-11-29T18:40:46.365Z,1.07
2022-11-29T18:43:17.479Z,1.06
2022-11-29T18:45:46.838Z,1.05
2022-11-29T18:48:18.125Z,1.07
2022-11-29T18:50:47.317Z,1.03
2022-11-29T18:53:16.866Z,1.02
2022-11-29T18:55:50.422Z,1.03
2022-11-29T18:58:21.484Z,1.05
2022-11-29T19:01:24.631Z,1.05
2022-11-29T19:03:59.822Z,1.04
2022-11-29T19:06:38.950Z,1.04
2022-11-29T19:09:15.076Z,1.03
2022-11-29T19:11:54.451Z,1.02
2022-11-29T19:17:40.158Z,1.00
2022-11-29T19:20:17.756Z,0.96
2022-11-29T19:23:00.660Z,0.93
2022-11-29T19:28:57.906Z,0.95
2022-11-29T19:31:59.931Z,0.96
2022-11-29T19:38:13.776Z,0.94
2022-11-29T19:41:18.662Z,0.95
2022-11-29T19:44:07.455Z,0.93
2022-11-29T19:49:47.089Z,0.95
2022-11-29T19:55:23.926Z,0.89
2022-11-29T19:57:59.699Z,0.88
2022-11-29T20:00:35.226Z,0.90
2022-11-29T20:03:09.967Z,0.88
2022-11-29T20:06:31.321Z,0.87
2022-11-29T20:09:20.797Z,0.88
2022-11-29T20:11:50.685Z,0.88
2022-11-29T20:14:49.764Z,0.87
2022-11-29T20:17:27.642Z,0.90
2022-11-29T20:20:05.760Z,0.92
2022-11-29T20:22:53.474Z,0.94
2022-11-29T20:25:28.617Z,0.96
2022-11-29T20:28:07.132Z,0.92
2022-11-29T20:31:14.734Z,0.89
2022-11-29T20:33:55.231Z,0.87
2022-11-29T20:40:09.411Z,0.88
2022-11-29T20:43:19.514Z,0.90
2022-11-29T20:45:59.241Z,0.89
2022-11-29T20:48:35.781Z,0.89
2022-11-29T20:51:14.378Z,0.90
2022-11-29T20:53:47.082Z,0.91
2022-11-29T20:56:22.702Z,0.89
2022-11-29T20:59:05.505Z,0.86
2022-11-29T21:01:47.704Z,0.83
2022-11-29T21:04:56.526Z,0.81
2022-11-29T21:07:40.036Z,0.80
2022-11-29T21:10:13.398Z,0.80
2022-11-29T21:12:51.265Z,0.83
2022-11-29T21:15:28.201Z,0.83
2022-11-29T21:17:58.335Z,0.81
2022-11-29T21:20:31.564Z,0.78
2022-11-29T21:23:15.762Z,0.75
2022-11-29T21:26:05.319Z,0.69
2022-11-29T21:28:51.028Z,0.68
2022-11-29T21:31:26.715Z,0.71
2022-11-29T21:33:57.515Z,0.72
2022-11-29T21:36:28.350Z,0.73
2022-11-29T21:39:03.624Z,0.75
2022-11-29T21:41:36.311Z,0.74
2022-11-29T21:44:08.810Z,0.70
2022-11-29T21:46:39.670Z,0.71
2022-11-29T21:49:09.767Z,0.74
2022-11-29T21:51:40.186Z,0.72
2022-11-29T21:54:16.967Z,0.71
2022-11-29T21:56:51.976Z,0.70
2022-11-29T21:59:29.139Z,0.70
2022-11-29T22:02:00.756Z,0.70
2022-11-29T22:04:33.701Z,0.68
2022-11-29T22:07:07.868Z,0.68
2022-11-29T22:09:42.351Z,0.72
2022-11-29T22:12:34.989Z,0.73
2022-11-29T22:15:27.903Z,0.74
2022-11-29T22:18:01.982Z,0.72
2022-11-29T22:20:35.431Z,0.70
2022-11-29T22:23:11.569Z,0.68
2022-11-29T22:25:45.140Z,0.69
2022-11-29T22:28:20.132Z,0.73
2022-11-29T22:30:52.793Z,0.75
2022-11-29T22:33:34.686Z,0.79
2022-11-29T22:36:14.029Z,0.82
2022-11-29T22:38:50.838Z,0.85
2022-11-29T22:41:20.282Z,0.87
2022-11-29T22:43:50.098Z,0.87
2022-11-29T22:46:26.667Z,0.88
2022-11-29T22:49:02.746Z,0.87
2022-11-29T22:51:41.320Z,0.88
2022-11-29T22:54:18.762Z,0.87
2022-11-29T22:56:51.051Z,0.86
2022-11-29T22:59:20.220Z,0.85
2022-11-29T23:01:58.437Z,0.81
2022-11-29T23:04:31.720Z,0.82
2022-11-29T23:07:07.059Z,0.81
2022-11-29T23:09:47.937Z,0.81
2022-11-29T23:12:24.418Z,0.83
2022-11-29T23:15:09.627Z,0.84
2022-11-29T23:18:18.519Z,0.85
2022-11-29T23:20:51.239Z,0.86
2022-11-29T23:23:21.257Z,0.85
2022-11-29T23:25:57.495Z,0.84
2022-11-29T23:28:38.009Z,0.84
2022-11-29T23:31:14.618Z,0.83
2022-11-29T23:33:53.728Z,0.83
2022-11-29T23:36:31.718Z,0.83
2022-11-29T23:39:06.925Z,0.83
2022-11-29T23:41:41.009Z,0.83
2022-11-29T23:44:16.246Z,0.80
2022-11-29T23:46:57.642Z,0.80
2022-11-29T23:49:38.683Z,0.78
2022-11-29T23:52:25.929Z,0.76
2022-11-29T23:55:24.530Z,0.76
2022-11-29T23:58:23.922Z,0.75
